sensor_id;sensor_type;location;lat;lon;timestamp;pressure;altitude;pressure_sealevel;temperature;humidity
62055;BME280;48653;51.742;-1.256;2023-04-29T00:01:54;101161.25;;;13.50;45.80
62055;BME280;48653;51.742;-1.256;2023-04-29T00:04:20;101164.78;;;13.75;45.53
62055;BME280;48653;51.742;-1.256;2023-04-29T00:06:45;101162.24;;;13.99;45.16
62055;BME280;48653;51.742;-1.256;2023-04-29T00:09:10;101164.66;;;13.77;45.24
62055;BME280;48653;51.742;-1.256;2023-04-29T00:11:36;101164.42;;;13.65;45.40
62055;BME280;48653;51.742;-1.256;2023-04-29T00:14:02;101168.65;;;13.46;45.62
62055;BME280;48653;51.742;-1.256;2023-04-29T00:16:28;101171.65;;;13.23;45.74
62055;BME280;48653;51.742;-1.256;2023-04-29T00:18:53;101166.70;;;13.34;45.07
62055;BME280;48653;51.742;-1.256;2023-04-29T00:21:19;101168.07;;;13.73;45.22
62055;BME280;48653;51.742;-1.256;2023-04-29T00:23:44;101169.72;;;13.47;45.60
62055;BME280;48653;51.742;-1.256;2023-04-29T00:26:10;101172.74;;;13.49;45.21
62055;BME280;48653;51.742;-1.256;2023-04-29T00:28:36;101174.16;;;13.86;45.18
62055;BME280;48653;51.742;-1.256;2023-04-29T00:31:01;101174.12;;;13.26;45.32
62055;BME280;48653;51.742;-1.256;2023-04-29T00:33:26;101174.43;;;13.17;45.50
62055;BME280;48653;51.742;-1.256;2023-04-29T00:35:52;101176.59;;;13.66;45.18
62055;BME280;48653;51.742;-1.256;2023-04-29T00:38:18;101177.66;;;13.61;45.04
62055;BME280;48653;51.742;-1.256;2023-04-29T00:40:43;101178.16;;;13.70;44.96
62055;BME280;48653;51.742;-1.256;2023-04-29T00:43:08;101176.15;;;13.42;45.26
62055;BME280;48653;51.742;-1.256;2023-04-29T00:45:34;101178.65;;;13.60;45.18
62055;BME280;48653;51.742;-1.256;2023-04-29T00:48:00;101179.37;;;13.43;44.96
62055;BME280;48653;51.742;-1.256;2023-04-29T00:50:25;101179.98;;;12.29;46.89
62055;BME280;48653;51.742;-1.256;2023-04-29T00:52:50;101184.02;;;12.93;45.71
62055;BME280;48653;51.742;-1.256;2023-04-29T00:55:15;101181.36;;;12.90;45.42
62055;BME280;48653;51.742;-1.256;2023-04-29T00:57:40;101185.21;;;13.32;45.25
62055;BME280;48653;51.742;-1.256;2023-04-29T01:00:08;101184.93;;;13.45;45.00
62055;BME280;48653;51.742;-1.256;2023-04-29T01:02:31;101182.94;;;13.94;44.15
62055;BME280;48653;51.742;-1.256;2023-04-29T01:04:56;101183.58;;;13.86;44.12
62055;BME280;48653;51.742;-1.256;2023-04-29T01:07:28;101188.47;;;12.65;45.90
62055;BME280;48653;51.742;-1.256;2023-04-29T01:09:52;101185.28;;;13.50;44.32
62055;BME280;48653;51.742;-1.256;2023-04-29T01:12:19;101181.42;;;13.17;44.76
62055;BME280;48653;51.742;-1.256;2023-04-29T01:14:38;101181.06;;;13.69;44.11
62055;BME280;48653;51.742;-1.256;2023-04-29T01:17:08;101183.30;;;13.44;44.25
62055;BME280;48653;51.742;-1.256;2023-04-29T01:19:38;101183.19;;;13.70;44.58
62055;BME280;48653;51.742;-1.256;2023-04-29T01:21:53;101177.72;;;13.47;44.21
62055;BME280;48653;51.742;-1.256;2023-04-29T01:24:18;101180.25;;;13.30;44.92
62055;BME280;48653;51.742;-1.256;2023-04-29T01:26:50;101180.08;;;13.86;44.09
62055;BME280;48653;51.742;-1.256;2023-04-29T01:29:19;101180.25;;;13.49;44.36
62055;BME280;48653;51.742;-1.256;2023-04-29T01:31:38;101180.39;;;13.83;44.16
62055;BME280;48653;51.742;-1.256;2023-04-29T01:34:08;101182.56;;;13.57;44.49
62055;BME280;48653;51.742;-1.256;2023-04-29T01:36:32;101179.73;;;13.59;44.62
62055;BME280;48653;51.742;-1.256;2023-04-29T01:38:59;101181.57;;;13.69;44.41
62055;BME280;48653;51.742;-1.256;2023-04-29T01:41:20;101181.91;;;13.51;44.11
62055;BME280;48653;51.742;-1.256;2023-04-29T01:43:42;101183.08;;;13.32;44.30
62055;BME280;48653;51.742;-1.256;2023-04-29T01:46:08;101183.45;;;13.50;44.67
62055;BME280;48653;51.742;-1.256;2023-04-29T01:48:32;101185.79;;;13.39;44.78
62055;BME280;48653;51.742;-1.256;2023-04-29T01:50:57;101189.60;;;13.69;44.47
62055;BME280;48653;51.742;-1.256;2023-04-29T01:53:23;101192.63;;;13.31;44.58
62055;BME280;48653;51.742;-1.256;2023-04-29T01:55:48;101193.83;;;13.36;44.93
62055;BME280;48653;51.742;-1.256;2023-04-29T01:58:14;101192.59;;;13.55;44.58
62055;BME280;48653;51.742;-1.256;2023-04-29T02:00:39;101193.28;;;13.34;44.96
62055;BME280;48653;51.742;-1.256;2023-04-29T02:03:04;101194.69;;;13.54;44.63
62055;BME280;48653;51.742;-1.256;2023-04-29T02:05:30;101196.12;;;13.22;44.45
62055;BME280;48653;51.742;-1.256;2023-04-29T02:07:55;101194.34;;;12.93;44.86
62055;BME280;48653;51.742;-1.256;2023-04-29T02:10:20;101194.71;;;13.43;44.56
62055;BME280;48653;51.742;-1.256;2023-04-29T02:12:46;101191.26;;;13.60;45.08
62055;BME280;48653;51.742;-1.256;2023-04-29T02:15:11;101188.31;;;13.32;45.00
62055;BME280;48653;51.742;-1.256;2023-04-29T02:17:37;101185.88;;;13.33;44.78
62055;BME280;48653;51.742;-1.256;2023-04-29T02:20:02;101182.67;;;13.15;45.19
62055;BME280;48653;51.742;-1.256;2023-04-29T02:22:27;101186.67;;;13.43;45.35
62055;BME280;48653;51.742;-1.256;2023-04-29T02:24:53;101186.89;;;13.09;45.27
62055;BME280;48653;51.742;-1.256;2023-04-29T02:27:18;101185.73;;;13.26;45.08
62055;BME280;48653;51.742;-1.256;2023-04-29T02:29:43;101187.91;;;13.12;45.12
62055;BME280;48653;51.742;-1.256;2023-04-29T02:32:09;101189.17;;;13.20;45.23
62055;BME280;48653;51.742;-1.256;2023-04-29T02:34:35;101191.42;;;13.23;45.12
62055;BME280;48653;51.742;-1.256;2023-04-29T02:37:00;101190.01;;;12.93;44.94
62055;BME280;48653;51.742;-1.256;2023-04-29T02:39:26;101193.15;;;13.08;45.23
62055;BME280;48653;51.742;-1.256;2023-04-29T02:41:53;101198.62;;;13.04;45.35
62055;BME280;48653;51.742;-1.256;2023-04-29T02:44:17;101199.85;;;12.80;45.56
62055;BME280;48653;51.742;-1.256;2023-04-29T02:46:42;101197.23;;;12.73;45.35
62055;BME280;48653;51.742;-1.256;2023-04-29T02:49:08;101194.14;;;12.76;44.97
62055;BME280;48653;51.742;-1.256;2023-04-29T02:51:34;101195.02;;;12.68;45.21
62055;BME280;48653;51.742;-1.256;2023-04-29T02:53:59;101195.27;;;12.65;45.43
62055;BME280;48653;51.742;-1.256;2023-04-29T02:56:25;101200.69;;;12.65;45.16
62055;BME280;48653;51.742;-1.256;2023-04-29T02:58:51;101203.30;;;12.65;45.52
62055;BME280;48653;51.742;-1.256;2023-04-29T03:01:17;101200.57;;;12.66;45.65
62055;BME280;48653;51.742;-1.256;2023-04-29T03:03:42;101199.91;;;12.46;45.15
62055;BME280;48653;51.742;-1.256;2023-04-29T03:06:07;101201.52;;;12.25;45.58
62055;BME280;48653;51.742;-1.256;2023-04-29T03:08:33;101199.94;;;12.09;45.24
62055;BME280;48653;51.742;-1.256;2023-04-29T03:10:58;101200.21;;;12.04;45.61
62055;BME280;48653;51.742;-1.256;2023-04-29T03:13:24;101199.25;;;12.22;45.72
62055;BME280;48653;51.742;-1.256;2023-04-29T03:15:49;101195.89;;;12.05;46.03
62055;BME280;48653;51.742;-1.256;2023-04-29T03:18:14;101195.57;;;11.96;45.62
62055;BME280;48653;51.742;-1.256;2023-04-29T03:20:40;101196.53;;;12.00;45.60
62055;BME280;48653;51.742;-1.256;2023-04-29T03:23:05;101195.82;;;11.93;45.75
62055;BME280;48653;51.742;-1.256;2023-04-29T03:25:31;101194.52;;;12.05;46.44
62055;BME280;48653;51.742;-1.256;2023-04-29T03:27:56;101195.86;;;11.81;46.24
62055;BME280;48653;51.742;-1.256;2023-04-29T03:30:21;101197.13;;;12.07;46.27
62055;BME280;48653;51.742;-1.256;2023-04-29T03:32:46;101197.06;;;11.96;46.39
62055;BME280;48653;51.742;-1.256;2023-04-29T03:35:12;101200.42;;;11.45;46.54
62055;BME280;48653;51.742;-1.256;2023-04-29T03:37:37;101203.12;;;11.69;46.40
62055;BME280;48653;51.742;-1.256;2023-04-29T03:40:03;101203.31;;;11.91;46.29
62055;BME280;48653;51.742;-1.256;2023-04-29T03:42:28;101204.92;;;11.42;46.72
62055;BME280;48653;51.742;-1.256;2023-04-29T03:44:53;101207.09;;;11.33;46.70
62055;BME280;48653;51.742;-1.256;2023-04-29T03:47:19;101208.85;;;11.20;47.02
62055;BME280;48653;51.742;-1.256;2023-04-29T03:49:44;101211.01;;;10.98;47.34
62055;BME280;48653;51.742;-1.256;2023-04-29T03:52:09;101210.29;;;11.20;47.32
62055;BME280;48653;51.742;-1.256;2023-04-29T03:54:35;101207.98;;;11.39;47.06
62055;BME280;48653;51.742;-1.256;2023-04-29T03:57:01;101207.15;;;11.39;47.19
62055;BME280;48653;51.742;-1.256;2023-04-29T03:59:26;101207.66;;;11.20;47.09
62055;BME280;48653;51.742;-1.256;2023-04-29T04:01:52;101206.53;;;11.12;47.36
62055;BME280;48653;51.742;-1.256;2023-04-29T04:04:17;101204.70;;;10.98;47.36
62055;BME280;48653;51.742;-1.256;2023-04-29T04:06:42;101202.23;;;11.05;47.53
62055;BME280;48653;51.742;-1.256;2023-04-29T04:09:08;101203.92;;;10.95;47.23
62055;BME280;48653;51.742;-1.256;2023-04-29T04:11:33;101206.79;;;11.19;47.10
62055;BME280;48653;51.742;-1.256;2023-04-29T04:13:59;101210.29;;;11.07;47.26
62055;BME280;48653;51.742;-1.256;2023-04-29T04:16:24;101213.54;;;10.52;47.85
62055;BME280;48653;51.742;-1.256;2023-04-29T04:18:50;101220.08;;;10.90;47.68
62055;BME280;48653;51.742;-1.256;2023-04-29T04:21:15;101220.68;;;10.82;47.65
62055;BME280;48653;51.742;-1.256;2023-04-29T04:23:41;101224.41;;;10.65;47.24
62055;BME280;48653;51.742;-1.256;2023-04-29T04:26:06;101225.17;;;10.81;47.17
62055;BME280;48653;51.742;-1.256;2023-04-29T04:28:31;101227.90;;;10.69;47.14
62055;BME280;48653;51.742;-1.256;2023-04-29T04:30:57;101232.77;;;10.57;47.65
62055;BME280;48653;51.742;-1.256;2023-04-29T04:33:22;101234.64;;;10.61;47.42
62055;BME280;48653;51.742;-1.256;2023-04-29T04:35:47;101237.93;;;10.56;47.55
62055;BME280;48653;51.742;-1.256;2023-04-29T04:38:13;101236.69;;;10.40;47.78
62055;BME280;48653;51.742;-1.256;2023-04-29T04:40:40;101239.52;;;10.20;47.82
62055;BME280;48653;51.742;-1.256;2023-04-29T04:43:04;101240.19;;;10.44;47.56
62055;BME280;48653;51.742;-1.256;2023-04-29T04:45:29;101243.84;;;10.47;47.65
62055;BME280;48653;51.742;-1.256;2023-04-29T04:47:54;101249.51;;;10.26;48.11
62055;BME280;48653;51.742;-1.256;2023-04-29T04:50:19;101252.30;;;10.31;47.74
62055;BME280;48653;51.742;-1.256;2023-04-29T04:52:45;101258.43;;;10.45;48.07
62055;BME280;48653;51.742;-1.256;2023-04-29T04:55:10;101260.60;;;10.38;47.48
62055;BME280;48653;51.742;-1.256;2023-04-29T04:57:35;101260.18;;;10.30;47.81
62055;BME280;48653;51.742;-1.256;2023-04-29T05:00:00;101262.48;;;10.18;47.81
62055;BME280;48653;51.742;-1.256;2023-04-29T05:02:26;101264.91;;;10.21;47.70
62055;BME280;48653;51.742;-1.256;2023-04-29T05:04:52;101272.20;;;10.18;47.82
62055;BME280;48653;51.742;-1.256;2023-04-29T05:07:16;101278.93;;;10.33;47.78
62055;BME280;48653;51.742;-1.256;2023-04-29T05:09:42;101289.06;;;10.14;47.75
62055;BME280;48653;51.742;-1.256;2023-04-29T05:12:07;101295.94;;;10.52;47.80
62055;BME280;48653;51.742;-1.256;2023-04-29T05:14:33;101302.00;;;10.53;47.74
62055;BME280;48653;51.742;-1.256;2023-04-29T05:16:59;101310.74;;;10.14;48.04
62055;BME280;48653;51.742;-1.256;2023-04-29T05:19:24;101311.46;;;10.39;47.99
62055;BME280;48653;51.742;-1.256;2023-04-29T05:21:49;101318.16;;;10.21;47.71
62055;BME280;48653;51.742;-1.256;2023-04-29T05:24:14;101321.12;;;10.15;48.63
62055;BME280;48653;51.742;-1.256;2023-04-29T05:26:40;101322.39;;;10.38;47.94
62055;BME280;48653;51.742;-1.256;2023-04-29T05:29:06;101323.44;;;10.00;48.70
62055;BME280;48653;51.742;-1.256;2023-04-29T05:31:31;101326.94;;;10.31;48.23
62055;BME280;48653;51.742;-1.256;2023-04-29T05:33:57;101329.85;;;10.25;48.64
62055;BME280;48653;51.742;-1.256;2023-04-29T05:36:22;101330.42;;;10.11;48.86
62055;BME280;48653;51.742;-1.256;2023-04-29T05:38:48;101332.07;;;10.01;49.32
62055;BME280;48653;51.742;-1.256;2023-04-29T05:41:13;101334.52;;;10.06;49.19
62055;BME280;48653;51.742;-1.256;2023-04-29T05:43:39;101335.74;;;10.56;49.42
62055;BME280;48653;51.742;-1.256;2023-04-29T05:46:04;101338.73;;;10.02;49.34
62055;BME280;48653;51.742;-1.256;2023-04-29T05:48:30;101342.80;;;10.31;49.05
62055;BME280;48653;51.742;-1.256;2023-04-29T05:50:55;101342.08;;;10.24;48.78
62055;BME280;48653;51.742;-1.256;2023-04-29T05:53:20;101340.58;;;10.37;48.91
62055;BME280;48653;51.742;-1.256;2023-04-29T05:55:46;101336.91;;;10.38;48.92
62055;BME280;48653;51.742;-1.256;2023-04-29T05:58:12;101334.71;;;10.48;48.82
62055;BME280;48653;51.742;-1.256;2023-04-29T06:00:37;101333.33;;;10.56;48.85
62055;BME280;48653;51.742;-1.256;2023-04-29T06:03:02;101334.30;;;10.61;48.91
62055;BME280;48653;51.742;-1.256;2023-04-29T06:05:27;101332.76;;;10.67;48.60
62055;BME280;48653;51.742;-1.256;2023-04-29T06:07:53;101332.05;;;10.60;49.13
62055;BME280;48653;51.742;-1.256;2023-04-29T06:10:18;101331.23;;;10.79;48.99
62055;BME280;48653;51.742;-1.256;2023-04-29T06:12:43;101331.62;;;10.91;49.20
62055;BME280;48653;51.742;-1.256;2023-04-29T06:15:09;101335.40;;;10.92;48.97
62055;BME280;48653;51.742;-1.256;2023-04-29T06:17:33;101339.27;;;11.04;49.15
62055;BME280;48653;51.742;-1.256;2023-04-29T06:19:59;101337.78;;;11.15;48.59
62055;BME280;48653;51.742;-1.256;2023-04-29T06:22:24;101344.03;;;11.32;48.76
62055;BME280;48653;51.742;-1.256;2023-04-29T06:24:49;101345.02;;;11.10;48.61
62055;BME280;48653;51.742;-1.256;2023-04-29T06:27:14;101349.34;;;11.14;48.51
62055;BME280;48653;51.742;-1.256;2023-04-29T06:29:40;101351.52;;;11.47;48.68
62055;BME280;48653;51.742;-1.256;2023-04-29T06:32:05;101352.72;;;11.31;48.48
62055;BME280;48653;51.742;-1.256;2023-04-29T06:34:30;101353.37;;;11.37;48.29
62055;BME280;48653;51.742;-1.256;2023-04-29T06:36:56;101352.78;;;11.53;48.69
62055;BME280;48653;51.742;-1.256;2023-04-29T06:39:22;101355.18;;;11.13;49.00
62055;BME280;48653;51.742;-1.256;2023-04-29T06:41:47;101358.15;;;11.39;48.56
62055;BME280;48653;51.742;-1.256;2023-04-29T06:44:12;101362.64;;;11.40;48.89
62055;BME280;48653;51.742;-1.256;2023-04-29T06:46:38;101366.24;;;10.95;49.77
62055;BME280;48653;51.742;-1.256;2023-04-29T06:49:04;101366.37;;;11.32;49.26
62055;BME280;48653;51.742;-1.256;2023-04-29T06:51:30;101368.12;;;11.68;49.00
62055;BME280;48653;51.742;-1.256;2023-04-29T06:53:54;101367.97;;;12.04;48.32
62055;BME280;48653;51.742;-1.256;2023-04-29T06:56:20;101366.05;;;12.25;47.78
62055;BME280;48653;51.742;-1.256;2023-04-29T06:58:45;101365.86;;;12.17;47.94
62055;BME280;48653;51.742;-1.256;2023-04-29T07:01:11;101366.38;;;12.42;47.36
62055;BME280;48653;51.742;-1.256;2023-04-29T07:03:37;101368.83;;;12.61;47.65
62055;BME280;48653;51.742;-1.256;2023-04-29T07:06:02;101371.94;;;12.61;47.53
62055;BME280;48653;51.742;-1.256;2023-04-29T07:08:27;101370.10;;;13.12;46.45
62055;BME280;48653;51.742;-1.256;2023-04-29T07:10:54;101372.68;;;13.09;46.19
62055;BME280;48653;51.742;-1.256;2023-04-29T07:13:18;101374.61;;;13.26;45.88
62055;BME280;48653;51.742;-1.256;2023-04-29T07:15:44;101374.95;;;13.40;45.58
62055;BME280;48653;51.742;-1.256;2023-04-29T07:18:09;101376.94;;;12.91;45.24
62055;BME280;48653;51.742;-1.256;2023-04-29T07:20:35;101376.73;;;13.57;45.49
62055;BME280;48653;51.742;-1.256;2023-04-29T07:23:00;101378.91;;;13.61;45.01
62055;BME280;48653;51.742;-1.256;2023-04-29T07:25:25;101383.40;;;14.04;44.46
62055;BME280;48653;51.742;-1.256;2023-04-29T07:27:50;101384.80;;;13.92;44.49
62055;BME280;48653;51.742;-1.256;2023-04-29T07:30:15;101381.18;;;14.53;43.30
62055;BME280;48653;51.742;-1.256;2023-04-29T07:32:41;101383.82;;;14.79;42.94
62055;BME280;48653;51.742;-1.256;2023-04-29T07:35:06;101382.70;;;14.54;43.09
62055;BME280;48653;51.742;-1.256;2023-04-29T07:37:31;101382.32;;;14.66;42.41
62055;BME280;48653;51.742;-1.256;2023-04-29T07:39:56;101381.79;;;15.22;41.87
62055;BME280;48653;51.742;-1.256;2023-04-29T07:42:22;101382.54;;;15.01;41.49
62055;BME280;48653;51.742;-1.256;2023-04-29T07:44:47;101379.49;;;15.45;40.59
62055;BME280;48653;51.742;-1.256;2023-04-29T07:47:12;101381.10;;;15.33;41.24
62055;BME280;48653;51.742;-1.256;2023-04-29T07:49:38;101383.41;;;15.10;41.20
62055;BME280;48653;51.742;-1.256;2023-04-29T07:52:04;101387.01;;;15.61;40.78
62055;BME280;48653;51.742;-1.256;2023-04-29T07:54:28;101384.63;;;15.78;40.21
62055;BME280;48653;51.742;-1.256;2023-04-29T07:56:53;101387.39;;;16.02;39.77
62055;BME280;48653;51.742;-1.256;2023-04-29T07:59:19;101387.84;;;16.25;39.60
62055;BME280;48653;51.742;-1.256;2023-04-29T08:01:44;101391.00;;;15.18;41.32
62055;BME280;48653;51.742;-1.256;2023-04-29T08:04:09;101387.48;;;15.59;40.23
62055;BME280;48653;51.742;-1.256;2023-04-29T08:06:35;101396.25;;;14.90;41.39
62055;BME280;48653;51.742;-1.256;2023-04-29T08:09:01;101393.35;;;16.37;40.18
62055;BME280;48653;51.742;-1.256;2023-04-29T08:11:26;101392.25;;;15.90;39.86
62055;BME280;48653;51.742;-1.256;2023-04-29T08:13:51;101394.70;;;15.95;39.82
62055;BME280;48653;51.742;-1.256;2023-04-29T08:16:16;101399.24;;;15.35;40.75
62055;BME280;48653;51.742;-1.256;2023-04-29T08:18:42;101404.00;;;14.43;42.30
62055;BME280;48653;51.742;-1.256;2023-04-29T08:21:07;101408.33;;;15.57;41.60
62055;BME280;48653;51.742;-1.256;2023-04-29T08:23:33;101406.83;;;15.70;41.22
62055;BME280;48653;51.742;-1.256;2023-04-29T08:25:59;101407.58;;;15.72;39.83
62055;BME280;48653;51.742;-1.256;2023-04-29T08:28:24;101406.38;;;15.94;40.76
62055;BME280;48653;51.742;-1.256;2023-04-29T08:30:50;101408.20;;;16.64;39.70
62055;BME280;48653;51.742;-1.256;2023-04-29T08:33:15;101406.60;;;16.76;39.87
62055;BME280;48653;51.742;-1.256;2023-04-29T08:35:41;101403.08;;;17.15;38.82
62055;BME280;48653;51.742;-1.256;2023-04-29T08:38:08;101406.52;;;17.02;38.04
62055;BME280;48653;51.742;-1.256;2023-04-29T08:40:34;101408.68;;;16.82;38.79
62055;BME280;48653;51.742;-1.256;2023-04-29T08:42:58;101408.10;;;17.01;38.63
62055;BME280;48653;51.742;-1.256;2023-04-29T08:45:24;101406.62;;;17.39;39.22
62055;BME280;48653;51.742;-1.256;2023-04-29T08:47:49;101408.05;;;16.87;39.46
62055;BME280;48653;51.742;-1.256;2023-04-29T08:50:14;101415.92;;;16.26;39.82
62055;BME280;48653;51.742;-1.256;2023-04-29T08:52:39;101417.31;;;16.88;39.30
62055;BME280;48653;51.742;-1.256;2023-04-29T08:55:06;101422.67;;;18.40;38.15
62055;BME280;48653;51.742;-1.256;2023-04-29T08:57:34;101423.76;;;18.13;37.06
62055;BME280;48653;51.742;-1.256;2023-04-29T08:59:58;101426.10;;;18.01;37.47
62055;BME280;48653;51.742;-1.256;2023-04-29T09:02:22;101424.43;;;17.46;37.54
62055;BME280;48653;51.742;-1.256;2023-04-29T09:04:52;101429.24;;;17.33;37.82
62055;BME280;48653;51.742;-1.256;2023-04-29T09:07:13;101428.79;;;17.56;38.66
62055;BME280;48653;51.742;-1.256;2023-04-29T09:09:38;101432.95;;;17.84;37.95
62055;BME280;48653;51.742;-1.256;2023-04-29T09:12:03;101431.18;;;18.71;37.42
62055;BME280;48653;51.742;-1.256;2023-04-29T09:14:29;101428.28;;;18.23;37.09
62055;BME280;48653;51.742;-1.256;2023-04-29T09:16:54;101430.50;;;18.76;35.90
62055;BME280;48653;51.742;-1.256;2023-04-29T09:19:29;101429.55;;;17.87;36.52
62055;BME280;48653;51.742;-1.256;2023-04-29T09:21:53;101433.65;;;18.54;36.06
62055;BME280;48653;51.742;-1.256;2023-04-29T09:24:11;101429.02;;;17.05;38.75
62055;BME280;48653;51.742;-1.256;2023-04-29T09:26:41;101430.97;;;18.12;37.94
62055;BME280;48653;51.742;-1.256;2023-04-29T09:29:07;101429.40;;;17.16;38.70
62055;BME280;48653;51.742;-1.256;2023-04-29T09:31:27;101431.31;;;18.26;38.46
62055;BME280;48653;51.742;-1.256;2023-04-29T09:33:54;101428.21;;;18.47;36.83
62055;BME280;48653;51.742;-1.256;2023-04-29T09:38:52;101427.22;;;20.31;34.10
62055;BME280;48653;51.742;-1.256;2023-04-29T09:41:08;101429.14;;;19.34;34.70
62055;BME280;48653;51.742;-1.256;2023-04-29T09:43:33;101431.79;;;18.88;35.30
62055;BME280;48653;51.742;-1.256;2023-04-29T09:45:58;101437.05;;;19.48;34.62
62055;BME280;48653;51.742;-1.256;2023-04-29T09:48:29;101436.80;;;17.82;36.20
62055;BME280;48653;51.742;-1.256;2023-04-29T09:51:01;101435.64;;;19.25;35.49
62055;BME280;48653;51.742;-1.256;2023-04-29T09:58:05;101432.22;;;20.83;33.05
62055;BME280;48653;51.742;-1.256;2023-04-29T10:00:32;101429.72;;;21.23;32.92
62055;BME280;48653;51.742;-1.256;2023-04-29T10:02:58;101425.85;;;21.88;30.56
62055;BME280;48653;51.742;-1.256;2023-04-29T10:05:21;101429.27;;;22.15;30.67
62055;BME280;48653;51.742;-1.256;2023-04-29T10:07:48;101427.84;;;22.35;30.81
62055;BME280;48653;51.742;-1.256;2023-04-29T10:10:12;101429.04;;;23.23;30.54
62055;BME280;48653;51.742;-1.256;2023-04-29T10:12:39;101430.68;;;22.58;29.88
62055;BME280;48653;51.742;-1.256;2023-04-29T10:15:09;101435.58;;;23.81;28.85
62055;BME280;48653;51.742;-1.256;2023-04-29T10:17:35;101437.58;;;24.13;28.97
62055;BME280;48653;51.742;-1.256;2023-04-29T10:19:58;101438.44;;;23.08;28.76
62055;BME280;48653;51.742;-1.256;2023-04-29T10:22:33;101434.98;;;23.39;29.46
62055;BME280;48653;51.742;-1.256;2023-04-29T10:24:46;101437.60;;;21.65;30.80
62055;BME280;48653;51.742;-1.256;2023-04-29T10:27:11;101438.26;;;22.31;31.07
62055;BME280;48653;51.742;-1.256;2023-04-29T10:29:36;101437.52;;;22.44;30.20
62055;BME280;48653;51.742;-1.256;2023-04-29T10:32:02;101437.72;;;23.54;28.79
62055;BME280;48653;51.742;-1.256;2023-04-29T10:34:27;101427.10;;;23.76;27.97
62055;BME280;48653;51.742;-1.256;2023-04-29T10:36:53;101421.25;;;24.67;27.87
62055;BME280;48653;51.742;-1.256;2023-04-29T10:39:38;101421.76;;;24.04;28.43
62055;BME280;48653;51.742;-1.256;2023-04-29T10:41:44;101422.66;;;23.03;28.59
62055;BME280;48653;51.742;-1.256;2023-04-29T10:44:09;101419.74;;;24.04;28.18
62055;BME280;48653;51.742;-1.256;2023-04-29T10:46:34;101419.99;;;24.36;27.42
62055;BME280;48653;51.742;-1.256;2023-04-29T10:49:00;101415.23;;;24.58;27.39
62055;BME280;48653;51.742;-1.256;2023-04-29T10:51:29;101417.27;;;23.65;26.63
62055;BME280;48653;51.742;-1.256;2023-04-29T10:54:00;101420.27;;;23.23;28.01
62055;BME280;48653;51.742;-1.256;2023-04-29T10:56:17;101423.65;;;23.64;27.77
62055;BME280;48653;51.742;-1.256;2023-04-29T10:58:42;101421.72;;;23.85;26.81
62055;BME280;48653;51.742;-1.256;2023-04-29T11:01:09;101425.79;;;24.21;27.66
62055;BME280;48653;51.742;-1.256;2023-04-29T11:03:46;101424.62;;;23.51;29.88
62055;BME280;48653;51.742;-1.256;2023-04-29T11:08:23;101424.45;;;24.36;26.30
62055;BME280;48653;51.742;-1.256;2023-04-29T11:10:52;101427.46;;;24.41;25.65
62055;BME280;48653;51.742;-1.256;2023-04-29T11:13:23;101429.15;;;24.33;26.41
62055;BME280;48653;51.742;-1.256;2023-04-29T11:15:39;101430.84;;;23.67;26.56
62055;BME280;48653;51.742;-1.256;2023-04-29T11:18:03;101435.20;;;23.84;26.03
62055;BME280;48653;51.742;-1.256;2023-04-29T11:20:28;101430.51;;;22.96;27.43
62055;BME280;48653;51.742;-1.256;2023-04-29T11:22:54;101430.19;;;24.10;26.66
62055;BME280;48653;51.742;-1.256;2023-04-29T11:25:18;101435.14;;;23.19;27.31
62055;BME280;48653;51.742;-1.256;2023-04-29T11:27:44;101434.39;;;23.50;26.39
62055;BME280;48653;51.742;-1.256;2023-04-29T11:30:09;101433.04;;;23.94;29.87
62055;BME280;48653;51.742;-1.256;2023-04-29T11:32:35;101428.18;;;22.64;29.43
62055;BME280;48653;51.742;-1.256;2023-04-29T11:35:08;101430.91;;;23.00;26.90
62055;BME280;48653;51.742;-1.256;2023-04-29T11:37:25;101429.96;;;23.12;28.74
62055;BME280;48653;51.742;-1.256;2023-04-29T11:39:50;101430.93;;;22.90;28.27
62055;BME280;48653;51.742;-1.256;2023-04-29T11:42:19;101424.48;;;22.99;27.77
62055;BME280;48653;51.742;-1.256;2023-04-29T11:44:40;101422.28;;;22.21;27.74
62055;BME280;48653;51.742;-1.256;2023-04-29T11:47:06;101422.05;;;22.70;28.46
62055;BME280;48653;51.742;-1.256;2023-04-29T11:49:31;101418.53;;;23.45;28.59
62055;BME280;48653;51.742;-1.256;2023-04-29T11:51:56;101415.23;;;21.61;30.12
62055;BME280;48653;51.742;-1.256;2023-04-29T11:54:21;101409.97;;;22.68;32.18
62055;BME280;48653;51.742;-1.256;2023-04-29T11:56:46;101411.85;;;23.29;29.12
62055;BME280;48653;51.742;-1.256;2023-04-29T11:59:12;101405.86;;;24.01;28.43
62055;BME280;48653;51.742;-1.256;2023-04-29T12:01:37;101404.57;;;23.91;27.04
62055;BME280;48653;51.742;-1.256;2023-04-29T12:04:04;101401.81;;;23.92;27.55
62055;BME280;48653;51.742;-1.256;2023-04-29T12:06:28;101397.04;;;22.99;27.71
62055;BME280;48653;51.742;-1.256;2023-04-29T12:08:53;101390.19;;;22.72;28.75
62055;BME280;48653;51.742;-1.256;2023-04-29T12:11:19;101392.37;;;22.92;27.59
62055;BME280;48653;51.742;-1.256;2023-04-29T12:13:43;101392.74;;;23.27;26.83
62055;BME280;48653;51.742;-1.256;2023-04-29T12:16:09;101391.44;;;22.61;28.09
62055;BME280;48653;51.742;-1.256;2023-04-29T12:18:34;101393.85;;;23.89;27.43
62055;BME280;48653;51.742;-1.256;2023-04-29T12:21:00;101390.89;;;24.40;28.78
62055;BME280;48653;51.742;-1.256;2023-04-29T12:23:24;101395.22;;;23.25;26.26
62055;BME280;48653;51.742;-1.256;2023-04-29T12:25:50;101399.58;;;22.89;29.02
62055;BME280;48653;51.742;-1.256;2023-04-29T12:28:15;101395.22;;;23.63;27.74
62055;BME280;48653;51.742;-1.256;2023-04-29T12:30:43;101395.04;;;24.02;27.42
62055;BME280;48653;51.742;-1.256;2023-04-29T12:33:07;101393.48;;;23.64;27.43
62055;BME280;48653;51.742;-1.256;2023-04-29T12:35:31;101394.37;;;23.81;26.85
62055;BME280;48653;51.742;-1.256;2023-04-29T12:37:57;101393.27;;;23.59;27.77
62055;BME280;48653;51.742;-1.256;2023-04-29T12:40:22;101395.67;;;23.83;27.40